Terminal Aerodrome Forecast
Issued by NWS Burlington, VT

Current Version | Previous Version | Text Only | Print | Product List | Glossary On
Versions: 1 2 3 4 5 6 7 8 9 10 11 12 13 14 15
000 FTUS41 KBTV 312336 TAFBTV TAF KBTV 312336Z 0100/0124 36006KT P6SM BKN060 FM012000 34010G20KT P6SM VCSH OVC030=

USA.gov is the U.S. government's official web portal to all federal, state and local government web resources and services.